Time;durP1;ratioP1;P1;durP2;ratioP2;P2;SDS_P1;SDS_P2;PMS_P1;PMS_P2;Temp;Humidity;BMP_temperature;BMP_pressure;BME280_temperature;BME280_humidity;BME280_pressure;Samples;Min_cycle;Max_cycle;Signal;HPM_P1;HPM_P2
2022/12/07 00:02:37;;;;;;;22.70;16.55;;;4.90;99.90;;;;;;7372089;32;20198;-58
2022/12/07 00:06:45;;;;;;;26.87;17.37;;;4.90;99.90;;;;;;7376889;32;20110;-58
2022/12/07 00:10:47;;;;;;;27.02;16.20;;;4.90;99.90;;;;;;7379529;32;20486;-58
2022/12/07 00:14:49;;;;;;;25.12;16.98;;;4.80;99.90;;;;;;7378811;32;20283;-59
2022/12/07 00:18:52;;;;;;;22.25;17.08;;;4.90;99.90;;;;;;7371608;32;20116;-59
2022/12/07 00:22:54;;;;;;;23.85;17.12;;;4.90;99.90;;;;;;7373403;32;20641;-59
2022/12/07 00:26:56;;;;;;;21.87;16.70;;;4.90;99.90;;;;;;7371563;32;20133;-59
2022/12/07 00:31:04;;;;;;;23.65;16.73;;;5.00;99.90;;;;;;7377149;32;20652;-58
2022/12/07 00:35:06;;;;;;;21.80;15.88;;;5.00;99.90;;;;;;7371850;32;20436;-58
2022/12/07 00:39:08;;;;;;;25.83;17.45;;;5.00;99.90;;;;;;7373675;32;20229;-58
2022/12/07 00:43:10;;;;;;;26.12;17.37;;;4.90;99.90;;;;;;7383667;32;20103;-58
2022/12/07 00:47:12;;;;;;;24.55;16.58;;;4.90;99.90;;;;;;7374376;32;20179;-58
2022/12/07 00:51:16;;;;;;;20.35;16.20;;;5.00;99.90;;;;;;7370798;32;20186;-60
2022/12/07 00:55:17;;;;;;;21.00;16.20;;;5.00;99.90;;;;;;7368656;32;20511;-58
2022/12/07 00:59:19;;;;;;;20.95;16.10;;;5.00;99.90;;;;;;7370526;32;20512;-58
2022/12/07 01:03:21;;;;;;;22.87;16.23;;;5.00;99.90;;;;;;7373047;32;20198;-58
2022/12/07 01:07:22;;;;;;;26.27;16.12;;;5.00;99.90;;;;;;7369642;32;20122;-58
2022/12/07 01:11:27;;;;;;;23.42;17.27;;;5.00;99.90;;;;;;7369824;32;20111;-58
2022/12/07 01:15:29;;;;;;;24.83;17.40;;;5.00;99.90;;;;;;7377582;32;20562;-58
2022/12/07 01:19:31;;;;;;;29.67;19.02;;;4.90;99.90;;;;;;7372614;32;20174;-58
2022/12/07 01:23:34;;;;;;;25.90;18.98;;;5.00;99.90;;;;;;7372173;32;20183;-59
2022/12/07 01:27:36;;;;;;;24.60;17.83;;;5.00;99.90;;;;;;7368569;32;20473;-59
2022/12/07 01:31:38;;;;;;;26.10;18.52;;;5.00;99.90;;;;;;7372189;32;20554;-58
2022/12/07 01:35:39;;;;;;;25.73;19.48;;;4.90;99.90;;;;;;7370806;32;20458;-58
2022/12/07 01:39:41;;;;;;;27.75;18.42;;;5.00;99.90;;;;;;7375954;32;20209;-60
2022/12/07 01:44:19;;;;;;;24.05;18.60;;;4.90;99.90;;;;;;7378142;32;20137;-59
2022/12/07 01:48:26;;;;;;;25.48;18.33;;;5.00;99.90;;;;;;7363931;32;20174;-58
2022/12/07 01:52:31;;;;;;;22.90;18.65;;;5.10;99.90;;;;;;7364090;32;20129;-59
2022/12/07 01:56:33;;;;;;;27.17;18.67;;;5.00;99.90;;;;;;7371344;32;20210;-59
2022/12/07 02:00:35;;;;;;;24.40;19.20;;;5.00;99.90;;;;;;7376901;32;20099;-58
2022/12/07 02:04:37;;;;;;;24.30;16.92;;;5.00;99.90;;;;;;7376651;32;20251;-59
2022/12/07 02:08:39;;;;;;;26.52;18.27;;;5.10;99.90;;;;;;7373388;32;20136;-58
2022/12/07 02:12:44;;;;;;;26.00;19.02;;;5.00;99.90;;;;;;7371549;32;20186;-59
2022/12/07 02:16:53;;;;;;;27.58;18.98;;;5.00;99.90;;;;;;7371830;32;20115;-58
2022/12/07 02:21:21;;;;;;;24.67;18.80;;;4.90;99.90;;;;;;7367524;32;20462;-58
2022/12/07 02:25:38;;;;;;;27.15;18.10;;;5.00;99.90;;;;;;7369620;32;20100;-58
2022/12/07 02:29:39;;;;;;;25.23;18.73;;;4.90;99.90;;;;;;7375157;32;20538;-58
2022/12/07 02:33:46;;;;;;;26.73;18.80;;;5.00;99.90;;;;;;7374778;32;20792;-60
2022/12/07 02:37:58;;;;;;;25.65;18.98;;;4.90;99.90;;;;;;7377694;32;20495;-59
2022/12/07 02:42:13;;;;;;;25.65;18.90;;;4.90;99.90;;;;;;7376034;32;20122;-58
2022/12/07 02:46:21;;;;;;;29.02;20.60;;;5.00;99.90;;;;;;7374112;32;20099;-59
2022/12/07 02:50:22;;;;;;;25.62;18.20;;;4.90;99.90;;;;;;7383971;32;20106;-59
2022/12/07 02:54:24;;;;;;;22.27;18.08;;;4.90;99.90;;;;;;7371993;32;20115;-58
2022/12/07 02:58:39;;;;;;;23.70;18.33;;;4.80;99.90;;;;;;7375394;32;20241;-58
2022/12/07 03:03:03;;;;;;;23.62;17.17;;;4.80;99.90;;;;;;7379214;32;20202;-58
2022/12/07 03:07:13;;;;;;;24.17;17.27;;;4.90;99.90;;;;;;7381538;32;20115;-58
2022/12/07 03:11:30;;;;;;;22.87;18.08;;;4.90;99.90;;;;;;7379967;32;20163;-58
2022/12/07 03:15:57;;;;;;;26.55;18.85;;;4.80;99.90;;;;;;7375735;32;20193;-58
2022/12/07 03:20:04;;;;;;;25.73;18.35;;;4.70;99.90;;;;;;7380979;32;20542;-58
2022/12/07 03:24:08;;;;;;;;;;;4.80;99.90;;;;;;7375739;32;20240;-58
2022/12/07 03:28:13;;;;;;;27.13;18.33;;;4.70;99.90;;;;;;7379566;32;20034;-58
2022/12/07 03:32:30;;;;;;;27.65;19.85;;;4.70;99.90;;;;;;7374335;32;20143;-58
2022/12/07 03:36:45;;;;;;;25.45;19.30;;;4.70;99.90;;;;;;7366853;32;20144;-58
2022/12/07 03:40:58;;;;;;;25.10;19.60;;;4.80;99.90;;;;;;7375555;32;20632;-58
2022/12/07 03:45:03;;;;;;;27.23;19.55;;;4.70;99.90;;;;;;7381117;32;20533;-58
2022/12/07 03:49:29;;;;;;;24.25;18.30;;;4.70;99.90;;;;;;7376982;32;20106;-58
2022/12/07 03:53:48;;;;;;;24.37;20.40;;;4.70;99.90;;;;;;7368589;32;20193;-59
2022/12/07 03:57:54;;;;;;;25.90;18.90;;;4.60;99.90;;;;;;7372538;32;20204;-58
2022/12/07 04:02:01;;;;;;;31.00;19.90;;;4.60;99.90;;;;;;7380173;32;20125;-57
2022/12/07 04:06:03;;;;;;;22.90;17.20;;;4.70;99.90;;;;;;7375573;32;20147;-57
2022/12/07 04:10:06;;;;;;;25.60;18.17;;;4.70;99.90;;;;;;7381997;32;20103;-57
2022/12/07 04:14:19;;;;;;;22.17;16.30;;;4.70;99.90;;;;;;7380032;32;20132;-57
2022/12/07 04:18:21;;;;;;;22.65;16.40;;;4.70;99.90;;;;;;7376440;32;20213;-57
2022/12/07 04:22:23;;;;;;;24.27;17.20;;;4.70;99.90;;;;;;7374222;32;20503;-57
2022/12/07 04:26:24;;;;;;;25.27;17.95;;;4.60;99.90;;;;;;7377060;32;20122;-58
2022/12/07 04:30:26;;;;;;;23.40;17.30;;;4.60;99.90;;;;;;7375149;32;20209;-57
2022/12/07 04:34:28;;;;;;;25.08;17.98;;;4.60;99.90;;;;;;7382739;32;20836;-57
2022/12/07 04:38:30;;;;;;;24.17;17.52;;;4.50;99.90;;;;;;7377226;32;20134;-57
2022/12/07 04:42:31;;;;;;;25.08;17.95;;;4.50;99.90;;;;;;7376687;32;20577;-58
2022/12/07 04:46:33;;;;;;;25.35;17.48;;;4.50;99.90;;;;;;7376770;32;20111;-58
2022/12/07 04:50:38;;;;;;;22.17;17.20;;;4.50;99.90;;;;;;7377080;32;20103;-58
2022/12/07 04:54:46;;;;;;;21.33;16.62;;;4.50;99.90;;;;;;7370889;32;20103;-59
2022/12/07 04:58:49;;;;;;;22.20;16.40;;;4.40;99.90;;;;;;7376306;32;20103;-59
2022/12/07 05:02:50;;;;;;;26.20;17.30;;;4.30;99.90;;;;;;7374389;32;20224;-58
2022/12/07 05:06:52;;;;;;;25.42;17.37;;;4.20;99.90;;;;;;7379321;32;20227;-58
2022/12/07 05:10:54;;;;;;;25.65;16.55;;;4.10;99.90;;;;;;7384304;32;20496;-58
2022/12/07 05:14:55;;;;;;;32.22;18.00;;;4.20;99.90;;;;;;7369680;32;20125;-59
2022/12/07 05:18:57;;;;;;;23.48;17.45;;;4.10;99.90;;;;;;7374243;32;20510;-58
2022/12/07 05:22:59;;;;;;;23.83;17.42;;;4.10;99.90;;;;;;7369471;32;20136;-58
2022/12/07 05:27:01;;;;;;;26.50;16.52;;;4.10;99.90;;;;;;7374013;32;20144;-59
2022/12/07 05:31:03;;;;;;;25.02;16.17;;;4.20;99.90;;;;;;7382125;32;20288;-60
2022/12/07 05:35:05;;;;;;;23.33;16.85;;;4.20;99.90;;;;;;7374420;32;20522;-60
2022/12/07 05:39:07;;;;;;;19.35;16.20;;;4.10;99.90;;;;;;7376237;32;20144;-58
2022/12/07 05:43:09;;;;;;;21.85;14.73;;;4.20;99.90;;;;;;7372094;32;20767;-58
2022/12/07 05:47:11;;;;;;;20.60;14.98;;;4.10;99.90;;;;;;7376174;32;20524;-58
2022/12/07 05:51:13;;;;;;;21.80;13.73;;;4.20;99.90;;;;;;7379442;32;20153;-58
2022/12/07 05:55:15;;;;;;;20.60;14.13;;;4.20;99.90;;;;;;7374870;32;20111;-58
2022/12/07 05:59:22;;;;;;;21.30;13.90;;;4.20;99.90;;;;;;7367676;32;20191;-58
2022/12/07 06:03:24;;;;;;;24.98;15.95;;;4.20;99.90;;;;;;7369636;32;20133;-59
2022/12/07 06:07:26;;;;;;;18.02;13.50;;;4.10;99.90;;;;;;7375725;32;20224;-58
2022/12/07 06:15:48;;;;;;;26.62;12.90;;;4.10;99.90;;;;;;7377604;32;20107;-58
2022/12/07 06:19:50;;;;;;;18.58;12.93;;;4.10;99.90;;;;;;7378712;32;20091;-58
2022/12/07 06:23:52;;;;;;;21.02;13.20;;;4.10;99.90;;;;;;7377974;32;20224;-58
2022/12/07 06:27:55;;;;;;;18.58;13.48;;;4.10;99.90;;;;;;7378949;32;20231;-58
2022/12/07 06:31:57;;;;;;;17.20;12.48;;;4.00;99.90;;;;;;7375605;32;20548;-59
2022/12/07 06:35:58;;;;;;;17.50;12.50;;;4.10;99.90;;;;;;7371491;32;20126;-58
2022/12/07 06:40:00;;;;;;;14.98;11.10;;;4.10;99.90;;;;;;7374743;32;20137;-58
2022/12/07 06:44:03;;;;;;;15.57;11.40;;;4.10;99.90;;;;;;7375461;32;20615;-58
2022/12/07 06:48:05;;;;;;;15.40;10.43;;;4.10;99.90;;;;;;7381274;32;20107;-58
2022/12/07 06:52:07;;;;;;;17.92;11.02;;;4.20;99.90;;;;;;7372913;32;20148;-58
2022/12/07 06:56:08;;;;;;;18.08;11.40;;;4.10;99.90;;;;;;7374366;32;20216;-58
2022/12/07 07:00:11;;;;;;;18.75;11.38;;;4.10;99.90;;;;;;7371554;32;20103;-59
2022/12/07 07:04:20;;;;;;;19.55;12.40;;;4.00;99.90;;;;;;7379088;32;20253;-59
2022/12/07 07:08:22;;;;;;;17.20;11.55;;;4.00;99.90;;;;;;7380018;32;20096;-59
2022/12/07 07:12:25;;;;;;;18.45;11.68;;;3.90;99.90;;;;;;7372957;32;20102;-59
2022/12/07 07:16:26;;;;;;;19.48;13.15;;;4.00;99.90;;;;;;7375172;32;20211;-59
2022/12/07 07:20:28;;;;;;;20.02;12.90;;;3.90;99.90;;;;;;7378815;32;20134;-59
2022/12/07 07:24:30;;;;;;;19.42;12.95;;;3.90;99.90;;;;;;7373402;32;20095;-60
2022/12/07 07:28:31;;;;;;;17.35;12.35;;;3.90;99.90;;;;;;7381247;32;20099;-61
2022/12/07 07:32:34;;;;;;;18.83;12.37;;;3.90;99.90;;;;;;7376815;32;20176;-62
2022/12/07 07:36:35;;;;;;;17.02;12.45;;;3.90;99.90;;;;;;7372431;32;20117;-62
2022/12/07 07:40:37;;;;;;;18.37;11.88;;;3.90;99.90;;;;;;7380967;32;20206;-60
2022/12/07 07:44:39;;;;;;;19.50;13.18;;;3.80;99.90;;;;;;7373168;32;20102;-61
2022/12/07 07:48:40;;;;;;;16.95;13.20;;;3.70;99.90;;;;;;7374721;32;20095;-61
2022/12/07 07:52:43;;;;;;;18.80;13.38;;;3.60;99.90;;;;;;7377218;32;20194;-61
2022/12/07 07:56:44;;;;;;;19.00;12.82;;;3.60;99.90;;;;;;7385151;32;20129;-61
2022/12/07 08:00:46;;;;;;;22.98;13.50;;;3.50;99.90;;;;;;7371401;32;20233;-61
2022/12/07 08:04:48;;;;;;;22.48;13.75;;;3.50;99.90;;;;;;7358206;32;20157;-61
2022/12/07 08:08:49;;;;;;;20.83;13.40;;;3.60;99.90;;;;;;7374100;32;20527;-61
2022/12/07 08:17:12;;;;;;;19.25;12.20;;;3.60;99.90;;;;;;7381048;32;20129;-61
2022/12/07 08:21:15;;;;;;;19.55;11.27;;;3.70;99.90;;;;;;7373032;32;20103;-61
2022/12/07 08:25:17;;;;;;;15.15;11.82;;;3.80;99.90;;;;;;7377509;32;20108;-61
2022/12/07 08:29:19;;;;;;;17.23;11.05;;;3.70;99.90;;;;;;7381132;32;20103;-60
2022/12/07 08:33:22;;;;;;;12.48;9.52;;;3.80;99.90;;;;;;7381805;32;20106;-60
2022/12/07 08:37:24;;;;;;;14.63;9.90;;;3.90;99.90;;;;;;7369439;32;20099;-60
2022/12/07 08:41:26;;;;;;;11.93;8.85;;;4.00;99.90;;;;;;7382450;32;20144;-61
2022/12/07 08:45:27;;;;;;;14.68;9.82;;;3.90;99.90;;;;;;7375676;32;20107;-60
2022/12/07 08:49:43;;;;;;;16.67;9.52;;;4.00;99.90;;;;;;7379718;32;20103;-60
2022/12/07 08:53:45;;;;;;;15.43;9.55;;;3.90;99.90;;;;;;7368653;32;20221;-60
2022/12/07 08:57:47;;;;;;;14.23;9.45;;;4.00;99.90;;;;;;7373284;32;20128;-61
2022/12/07 09:01:49;;;;;;;11.25;9.18;;;4.00;99.90;;;;;;7376895;32;20107;-61
2022/12/07 09:05:52;;;;;;;11.95;8.18;;;4.10;99.90;;;;;;7374503;32;20785;-61
2022/12/07 09:09:54;;;;;;;15.93;8.13;;;4.20;99.90;;;;;;7375076;32;22632;-61
2022/12/07 09:13:56;;;;;;;13.13;7.70;;;4.30;99.90;;;;;;7373263;32;20186;-62
2022/12/07 09:17:58;;;;;;;11.15;7.90;;;4.40;99.90;;;;;;7378364;32;20826;-61
2022/12/07 09:21:59;;;;;;;11.77;7.93;;;4.50;99.90;;;;;;7373230;32;20107;-62
2022/12/07 09:26:04;;;;;;;13.90;7.40;;;4.50;99.90;;;;;;7370760;32;20129;-61
2022/12/07 09:30:12;;;;;;;10.15;6.93;;;4.60;99.90;;;;;;7375772;32;20226;-63
2022/12/07 09:34:13;;;;;;;11.23;6.78;;;4.60;99.90;;;;;;7376716;32;20133;-61
2022/12/07 09:38:16;;;;;;;12.10;7.40;;;4.60;99.90;;;;;;7374257;32;20221;-61
2022/12/07 09:42:36;;;;;;;10.57;7.40;;;4.80;99.90;;;;;;7373247;32;20107;-60
2022/12/07 09:46:41;;;;;;;12.48;7.18;;;5.10;99.90;;;;;;7377985;32;20546;-60
2022/12/07 09:50:43;;;;;;;14.50;6.03;;;5.10;99.90;;;;;;7373090;32;20245;-61
2022/12/07 09:54:48;;;;;;;9.73;6.20;;;5.30;99.90;;;;;;7366127;32;20136;-61
2022/12/07 09:58:59;;;;;;;7.22;5.85;;;5.30;99.90;;;;;;7376001;32;20098;-60
2022/12/07 10:03:02;;;;;;;9.07;5.87;;;5.40;99.90;;;;;;7379879;32;20115;-60
2022/12/07 10:07:03;;;;;;;8.13;5.18;;;5.40;99.90;;;;;;7368893;32;20107;-61
2022/12/07 10:11:10;;;;;;;10.73;5.18;;;5.30;99.90;;;;;;7379125;32;20137;-60
2022/12/07 10:15:13;;;;;;;12.77;4.70;;;5.30;99.90;;;;;;7378532;32;20126;-60
2022/12/07 10:19:44;;;;;;;8.43;4.62;;;5.30;99.90;;;;;;7379846;32;20931;-61
2022/12/07 10:24:10;;;;;;;10.57;5.12;;;5.30;99.90;;;;;;7367229;32;20508;-61
2022/12/07 10:28:15;;;;;;;10.25;5.70;;;5.20;99.90;;;;;;7375211;32;20175;-64
2022/12/07 10:32:17;;;;;;;12.68;6.30;;;5.40;99.90;;;;;;7374091;32;20111;-61
2022/12/07 10:36:36;;;;;;;9.07;5.93;;;5.40;99.90;;;;;;7380878;32;20103;-59
2022/12/07 10:40:37;;;;;;;11.88;6.95;;;5.40;99.90;;;;;;7376655;32;20190;-59
2022/12/07 10:44:46;;;;;;;12.73;7.72;;;5.40;99.90;;;;;;7383272;32;20176;-60
2022/12/07 10:48:57;;;;;;;12.15;8.18;;;5.30;99.90;;;;;;7377974;32;20129;-59
2022/12/07 10:53:34;;;;;;;11.38;6.68;;;5.50;99.90;;;;;;7379392;32;20541;-59
2022/12/07 10:58:07;;;;;;;9.50;6.20;;;5.70;99.90;;;;;;7381073;32;20107;-59
2022/12/07 11:02:36;;;;;;;12.88;6.07;;;6.00;99.90;;;;;;7375862;32;20111;-59
2022/12/07 11:07:04;;;;;;;9.95;4.62;;;6.40;99.90;;;;;;7372513;32;20202;-60
2022/12/07 11:11:33;;;;;;;15.73;4.10;;;6.50;99.90;;;;;;7373269;32;20126;-59
2022/12/07 11:16:00;;;;;;;9.75;4.45;;;6.60;99.90;;;;;;7373002;32;20111;-59
2022/12/07 11:20:20;;;;;;;11.27;4.07;;;6.70;99.90;;;;;;7376327;32;20107;-59
2022/12/07 11:24:44;;;;;;;10.73;3.37;;;6.70;99.90;;;;;;7382590;32;20129;-59
2022/12/07 11:29:21;;;;;;;8.63;3.50;;;6.60;99.90;;;;;;7373339;32;20593;-59
2022/12/07 11:33:31;;;;;;;9.68;3.10;;;6.40;99.90;;;;;;7362244;32;20289;-59
2022/12/07 11:37:37;;;;;;;6.35;2.90;;;6.50;99.90;;;;;;7367822;32;20202;-60
2022/12/07 11:41:42;;;;;;;11.70;4.22;;;6.30;99.90;;;;;;7360907;32;20095;-59
2022/12/07 11:45:52;;;;;;;11.55;3.35;;;6.40;99.90;;;;;;7367445;32;20256;-60
2022/12/07 11:50:03;;;;;;;7.43;4.12;;;6.30;99.90;;;;;;7369353;32;20284;-61
2022/12/07 11:54:29;;;;;;;9.77;3.55;;;6.30;99.90;;;;;;7374873;32;20116;-60
2022/12/07 11:59:00;;;;;;;10.15;3.22;;;6.20;99.90;;;;;;7371252;32;20535;-59
2022/12/07 12:03:11;;;;;;;12.77;2.83;;;6.30;99.90;;;;;;7374394;32;20182;-60
2022/12/07 12:07:19;;;;;;;6.93;2.70;;;6.40;99.90;;;;;;7373778;32;20103;-60
2022/12/07 12:11:52;;;;;;;10.88;2.60;;;6.50;99.90;;;;;;7372455;32;20113;-60
2022/12/07 12:16:43;;;;;;;8.73;2.58;;;6.60;99.90;;;;;;7380180;32;20231;-61
2022/12/07 12:20:56;;;;;;;10.55;2.75;;;6.50;99.90;;;;;;7372654;32;20133;-60
2022/12/07 12:24:58;;;;;;;7.03;2.85;;;6.50;99.90;;;;;;7378017;32;20622;-60
2022/12/07 12:29:04;;;;;;;8.77;2.25;;;6.40;99.90;;;;;;7373814;32;20150;-61
2022/12/07 12:33:31;;;;;;;6.75;2.80;;;6.40;99.90;;;;;;7373854;32;20111;-60
2022/12/07 12:37:33;;;;;;;8.23;3.12;;;6.30;99.90;;;;;;7373701;32;20247;-60
2022/12/07 12:42:05;;;;;;;9.30;3.00;;;6.40;99.90;;;;;;7373138;32;20103;-59
2022/12/07 12:46:57;;;;;;;10.40;2.67;;;6.40;99.90;;;;;;7373911;32;20121;-59
2022/12/07 12:51:36;;;;;;;9.45;2.90;;;6.40;99.90;;;;;;7297441;32;20166;-59
2022/12/07 12:55:41;;;;;;;8.75;2.30;;;6.50;99.90;;;;;;7356444;32;20507;-59
2022/12/07 12:59:59;;;;;;;5.28;2.10;;;6.50;99.90;;;;;;7375807;32;20095;-59
2022/12/07 13:04:02;;;;;;;6.15;2.60;;;6.40;99.90;;;;;;7378826;32;20137;-59
2022/12/07 13:08:23;;;;;;;4.22;1.70;;;6.40;99.90;;;;;;7372448;32;20248;-60
2022/12/07 13:12:31;;;;;;;4.37;1.65;;;5.90;99.90;;;;;;7378255;32;20125;-60
2022/12/07 13:16:38;;;;;;;8.43;1.23;;;5.60;99.90;;;;;;7377360;32;20128;-59
2022/12/07 13:20:45;;;;;;;8.07;1.63;;;5.60;99.90;;;;;;7365293;32;20096;-60
2022/12/07 13:24:47;;;;;;;8.35;1.90;;;5.50;99.90;;;;;;7371505;32;20584;-60
2022/12/07 13:29:19;;;;;;;8.27;2.62;;;5.60;99.90;;;;;;7370570;32;20515;-60
2022/12/07 13:33:21;;;;;;;5.95;2.20;;;5.60;99.90;;;;;;7371755;32;20466;-60
2022/12/07 13:37:28;;;;;;;4.72;1.77;;;5.60;99.90;;;;;;7372297;32;20558;-61
2022/12/07 13:41:42;;;;;;;5.93;2.12;;;5.60;99.90;;;;;;7375021;32;20265;-60
2022/12/07 13:45:50;;;;;;;6.87;2.00;;;5.70;99.90;;;;;;7374203;32;20212;-60
2022/12/07 13:49:54;;;;;;;4.97;2.15;;;5.70;99.90;;;;;;7372188;32;20772;-60
2022/12/07 13:54:08;;;;;;;9.88;2.67;;;5.80;99.90;;;;;;7372659;32;20103;-61
2022/12/07 13:58:10;;;;;;;8.98;2.83;;;5.90;99.90;;;;;;7379355;32;20174;-61
2022/12/07 14:02:29;;;;;;;5.00;2.17;;;6.00;99.90;;;;;;7368016;32;20098;-60
2022/12/07 14:06:36;;;;;;;7.53;2.00;;;6.10;99.90;;;;;;7373337;32;20157;-61
2022/12/07 14:10:58;;;;;;;5.85;1.90;;;6.10;99.90;;;;;;7373793;32;20106;-61
2022/12/07 14:15:02;;;;;;;8.68;1.85;;;6.10;99.90;;;;;;7367794;32;20123;-60
2022/12/07 14:19:25;;;;;;;4.50;1.58;;;6.10;99.90;;;;;;7379287;32;20198;-60
2022/12/07 14:23:27;;;;;;;7.95;1.73;;;6.00;99.90;;;;;;7373622;32;20474;-61
2022/12/07 14:27:36;;;;;;;7.65;2.03;;;5.90;99.90;;;;;;7376745;32;20491;-61
2022/12/07 14:31:38;;;;;;;7.07;1.60;;;5.90;99.90;;;;;;7377833;32;20131;-60
2022/12/07 14:35:40;;;;;;;8.07;1.92;;;5.80;99.90;;;;;;7371341;32;20217;-61
2022/12/07 14:39:41;;;;;;;4.95;1.55;;;5.80;99.90;;;;;;7369396;32;20529;-63
2022/12/07 14:43:43;;;;;;;9.98;2.47;;;5.80;99.90;;;;;;7375273;32;20104;-62
2022/12/07 14:48:05;;;;;;;7.18;1.73;;;5.70;99.90;;;;;;7382358;32;20552;-58
2022/12/07 14:52:29;;;;;;;3.47;1.50;;;5.60;99.90;;;;;;7360205;32;20107;-61
2022/12/07 14:56:51;;;;;;;7.15;2.20;;;5.40;99.90;;;;;;7371957;32;20145;-60
2022/12/07 15:00:53;;;;;;;8.18;1.65;;;5.20;99.90;;;;;;7375763;32;20244;-61
2022/12/07 15:04:54;;;;;;;10.02;2.55;;;5.10;99.90;;;;;;7368836;32;20194;-61
2022/12/07 15:08:56;;;;;;;5.12;2.00;;;5.00;99.90;;;;;;7370843;32;20099;-62
2022/12/07 15:14:07;;;;;;;8.00;2.47;;;4.90;99.90;;;;;;7364804;32;20099;-61
2022/12/07 15:17:21;;;;;;;8.65;2.92;;;4.90;99.90;;;;;;7367047;32;20256;-61
2022/12/07 15:21:32;;;;;;;7.37;2.97;;;4.80;99.90;;;;;;7369656;32;20275;-60
2022/12/07 15:25:34;;;;;;;9.35;3.05;;;4.70;99.90;;;;;;7367952;32;20217;-61
2022/12/07 15:29:36;;;;;;;8.32;3.10;;;4.60;99.90;;;;;;7370570;32;20193;-63
2022/12/07 15:33:38;;;;;;;6.68;3.03;;;4.50;99.90;;;;;;7375369;32;20229;-62
2022/12/07 15:37:40;;;;;;;9.90;5.32;;;4.30;99.90;;;;;;7379336;32;20146;-62
2022/12/07 15:41:42;;;;;;;11.10;6.20;;;4.20;99.90;;;;;;7376060;32;20103;-62
2022/12/07 15:45:43;;;;;;;8.73;3.70;;;4.20;99.90;;;;;;7375640;32;20131;-63
2022/12/07 15:49:45;;;;;;;6.68;3.28;;;4.20;99.90;;;;;;7376971;32;20834;-62
2022/12/07 15:53:47;;;;;;;6.37;2.87;;;4.10;99.90;;;;;;7375292;32;20132;-62
2022/12/07 15:57:49;;;;;;;8.25;3.20;;;4.10;99.90;;;;;;7368545;32;20144;-61
2022/12/07 16:01:51;;;;;;;10.57;3.95;;;4.10;99.90;;;;;;7375605;32;20610;-61
2022/12/07 16:05:53;;;;;;;11.38;3.92;;;4.40;99.90;;;;;;7377025;32;20749;-59
2022/12/07 16:09:54;;;;;;;10.93;3.40;;;4.40;99.90;;;;;;7373863;32;20102;-61
2022/12/07 16:13:56;;;;;;;7.80;2.90;;;4.60;99.90;;;;;;7376010;32;20244;-60
2022/12/07 16:17:58;;;;;;;9.73;3.50;;;4.60;99.90;;;;;;7384051;32;20111;-60
2022/12/07 16:22:00;;;;;;;9.52;3.37;;;4.60;99.90;;;;;;7373257;32;20103;-60
2022/12/07 16:26:07;;;;;;;10.90;3.08;;;4.70;99.90;;;;;;7370062;32;20102;-60
2022/12/07 16:30:09;;;;;;;9.55;3.53;;;4.90;99.90;;;;;;7374177;32;20106;-60
2022/12/07 16:34:10;;;;;;;9.60;3.47;;;4.90;99.90;;;;;;7373934;32;20125;-60
2022/12/07 16:38:12;;;;;;;12.63;3.62;;;5.00;99.90;;;;;;7367917;32;20126;-61
2022/12/07 16:42:13;;;;;;;6.90;3.00;;;5.10;99.90;;;;;;7375919;32;20131;-62
2022/12/07 16:46:15;;;;;;;6.45;2.92;;;5.00;99.90;;;;;;7366934;32;20197;-61
2022/12/07 16:50:17;;;;;;;8.13;3.40;;;5.10;99.90;;;;;;7370733;32;20137;-61
2022/12/07 16:54:19;;;;;;;15.35;4.20;;;5.00;99.90;;;;;;7365779;32;20589;-63
2022/12/07 16:58:20;;;;;;;9.95;3.95;;;5.00;99.90;;;;;;7372908;32;20156;-60
2022/12/07 17:02:22;;;;;;;7.05;4.32;;;5.00;99.90;;;;;;7377081;32;20811;-61
2022/12/07 17:06:27;;;;;;;10.90;3.87;;;5.10;99.90;;;;;;7376174;32;20132;-62
2022/12/07 17:10:29;;;;;;;10.68;4.45;;;5.20;99.90;;;;;;7370937;32;20111;-61
2022/12/07 17:18:50;;;;;;;12.07;4.93;;;5.10;99.90;;;;;;7372354;32;20114;-60
2022/12/07 17:22:53;;;;;;;11.25;5.43;;;5.10;99.90;;;;;;7371159;32;20130;-61
2022/12/07 17:26:54;;;;;;;17.55;6.20;;;5.20;99.90;;;;;;7374404;32;20703;-60
2022/12/07 17:30:56;;;;;;;10.05;5.68;;;5.10;99.90;;;;;;7376491;32;20183;-60
2022/12/07 17:34:59;;;;;;;12.05;6.35;;;5.20;99.90;;;;;;7373037;32;20107;-60
2022/12/07 17:39:05;;;;;;;17.90;7.68;;;5.20;99.90;;;;;;7372660;32;20435;-59
2022/12/07 17:43:08;;;;;;;10.93;5.70;;;5.20;99.90;;;;;;7368496;32;20106;-60
2022/12/07 17:47:10;;;;;;;9.05;6.45;;;5.10;99.90;;;;;;7372263;32;20099;-60
2022/12/07 17:55:32;;;;;;;9.90;6.55;;;5.00;99.90;;;;;;7370377;32;20103;-60
2022/12/07 17:59:54;;;;;;;12.68;7.20;;;5.00;99.90;;;;;;7373048;32;20453;-60
2022/12/07 18:03:56;;;;;;;13.88;7.37;;;5.10;99.90;;;;;;7375010;32;20111;-59
2022/12/07 18:07:57;;;;;;;11.05;7.07;;;5.00;99.90;;;;;;7371702;32;20102;-59
2022/12/07 18:11:59;;;;;;;11.00;7.70;;;5.00;99.90;;;;;;7371452;32;20126;-59
2022/12/07 18:16:10;;;;;;;14.55;7.85;;;4.90;99.90;;;;;;7379912;32;20283;-59
2022/12/07 18:20:12;;;;;;;15.02;7.32;;;4.90;99.90;;;;;;7370560;32;20124;-59
2022/12/07 18:24:16;;;;;;;11.55;7.62;;;4.90;99.90;;;;;;7370363;32;20474;-60
2022/12/07 18:28:19;;;;;;;10.85;7.00;;;4.90;99.90;;;;;;7374640;32;20106;-61
2022/12/07 18:32:21;;;;;;;11.82;7.68;;;4.80;99.90;;;;;;7373990;32;20103;-60
2022/12/07 18:36:23;;;;;;;11.23;7.55;;;4.80;99.90;;;;;;7373548;32;20094;-60
2022/12/07 18:40:26;;;;;;;9.93;6.70;;;4.80;99.90;;;;;;7370901;32;20126;-60
2022/12/07 18:44:27;;;;;;;10.88;5.57;;;4.80;99.90;;;;;;7370650;32;20556;-60
2022/12/07 18:48:29;;;;;;;9.57;6.03;;;4.90;99.90;;;;;;7373277;32;20134;-60
2022/12/07 18:52:31;;;;;;;12.37;6.90;;;4.80;99.90;;;;;;7375733;32;20527;-60
2022/12/07 18:56:33;;;;;;;10.63;7.05;;;4.90;99.90;;;;;;7366623;32;20209;-61
2022/12/07 19:00:35;;;;;;;13.45;8.63;;;4.90;99.90;;;;;;7372749;32;20542;-61
2022/12/07 19:04:36;;;;;;;11.43;9.15;;;5.00;99.90;;;;;;7369035;32;20118;-61
2022/12/07 19:08:38;;;;;;;18.05;10.98;;;4.90;99.90;;;;;;7372414;32;20467;-61
2022/12/07 19:12:40;;;;;;;16.87;11.48;;;4.90;99.90;;;;;;7371051;32;20087;-61
2022/12/07 19:16:44;;;;;;;15.68;11.23;;;4.90;99.90;;;;;;7375480;32;20103;-61
2022/12/07 19:20:46;;;;;;;16.60;11.00;;;4.90;99.90;;;;;;7372712;32;20581;-61
2022/12/07 19:24:49;;;;;;;17.10;11.68;;;4.90;99.90;;;;;;7375353;32;20150;-60
2022/12/07 19:28:51;;;;;;;20.23;15.07;;;4.80;99.90;;;;;;7369179;32;20134;-62
2022/12/07 19:32:53;;;;;;;17.73;12.13;;;4.70;99.90;;;;;;7371714;32;20107;-60
2022/12/07 19:36:54;;;;;;;16.77;11.63;;;4.80;99.90;;;;;;7376148;32;20099;-61
2022/12/07 19:41:05;;;;;;;17.17;13.18;;;4.70;99.90;;;;;;7371471;32;20752;-61
2022/12/07 19:45:07;;;;;;;26.08;13.70;;;4.70;99.90;;;;;;7369412;32;20193;-60
2022/12/07 19:49:08;;;;;;;18.17;12.82;;;4.70;99.90;;;;;;7371569;32;20115;-59
2022/12/07 19:53:10;;;;;;;22.00;12.25;;;4.90;99.90;;;;;;7363863;32;20147;-59
2022/12/07 19:57:15;;;;;;;17.25;13.18;;;4.80;99.90;;;;;;7373957;32;20467;-60
2022/12/07 20:01:16;;;;;;;17.65;12.88;;;4.80;99.90;;;;;;7370170;32;20214;-60
2022/12/07 20:05:20;;;;;;;16.70;12.68;;;4.70;99.90;;;;;;7375800;32;20142;-60
2022/12/07 20:09:23;;;;;;;20.23;13.52;;;4.70;99.90;;;;;;7377131;32;20133;-60
2022/12/07 20:13:27;;;;;;;19.30;14.18;;;4.60;99.90;;;;;;7370414;32;20728;-60
2022/12/07 20:17:29;;;;;;;22.50;13.80;;;4.60;99.90;;;;;;7371818;32;20099;-60
2022/12/07 20:21:31;;;;;;;23.52;15.20;;;4.60;99.90;;;;;;7372935;32;20111;-60
2022/12/07 20:25:35;;;;;;;23.00;15.52;;;4.60;99.90;;;;;;7372473;32;20229;-61
2022/12/07 20:29:37;;;;;;;21.48;15.98;;;4.60;99.90;;;;;;7367958;32;20629;-60
2022/12/07 20:33:39;;;;;;;21.30;15.45;;;4.50;99.90;;;;;;7368516;32;20166;-60
2022/12/07 20:37:41;;;;;;;21.75;15.35;;;4.60;99.90;;;;;;7371532;32;20149;-60
2022/12/07 20:46:03;;;;;;;27.65;16.40;;;4.50;99.90;;;;;;7367126;32;20312;-62
2022/12/07 20:50:05;;;;;;;24.48;17.17;;;4.40;99.90;;;;;;7375466;32;20524;-61
2022/12/07 20:54:07;;;;;;;24.15;16.83;;;4.40;99.90;;;;;;7377274;32;20099;-61
2022/12/07 20:58:09;;;;;;;28.15;15.52;;;4.40;99.90;;;;;;7370938;32;20131;-61
2022/12/07 21:02:12;;;;;;;27.83;15.82;;;4.50;99.90;;;;;;7363686;32;20103;-60
2022/12/07 21:06:16;;;;;;;23.05;15.20;;;4.30;99.90;;;;;;7365035;32;20106;-60
2022/12/07 21:10:18;;;;;;;24.55;15.90;;;4.40;99.90;;;;;;7369366;32;20220;-58
2022/12/07 21:14:20;;;;;;;25.55;15.52;;;4.40;99.90;;;;;;7372590;32;20544;-59
2022/12/07 21:18:22;;;;;;;23.55;15.90;;;4.30;99.90;;;;;;7379673;32;20236;-59
2022/12/07 21:22:24;;;;;;;21.40;14.70;;;4.40;99.90;;;;;;7371894;32;20128;-59
2022/12/07 21:26:26;;;;;;;22.58;15.82;;;4.30;99.90;;;;;;7378972;32;20095;-59
2022/12/07 21:30:28;;;;;;;23.15;15.02;;;4.30;99.90;;;;;;7369308;32;20162;-58
2022/12/07 21:34:50;;;;;;;21.25;13.95;;;4.30;99.90;;;;;;7376610;32;20553;-59
2022/12/07 21:38:52;;;;;;;21.55;13.98;;;4.30;99.90;;;;;;7381718;32;20474;-60
2022/12/07 21:42:53;;;;;;;23.85;15.50;;;4.30;99.90;;;;;;7380706;32;20136;-58